Time;durP1;ratioP1;P1;durP2;ratioP2;P2;SDS_P1;SDS_P2;PMS_P1;PMS_P2;Temp;Humidity;BMP_temperature;BMP_pressure;BME280_temperature;BME280_humidity;BME280_pressure;Samples;Min_cycle;Max_cycle;Signal;HPM_P1;HPM_P2
2022/04/29 00:00:48;;;;;;;11.27;5.63;;;;;;;7.90;71.25;101746.50;5103805;28;20482;-72
2022/04/29 00:03:16;;;;;;;8.23;5.90;;;;;;;7.99;71.04;101742.47;5105132;28;20467;-72
2022/04/29 00:05:44;;;;;;;9.70;6.13;;;;;;;7.95;71.19;101748.91;5104524;28;20471;-72
2022/04/29 00:08:12;;;;;;;12.57;6.00;;;;;;;7.98;71.14;101754.91;5104849;28;20473;-73
2022/04/29 00:10:39;;;;;;;12.30;7.50;;;;;;;7.95;71.30;101748.91;5104477;28;20497;-74
2022/04/29 00:13:09;;;;;;;8.40;5.40;;;;;;;7.91;71.59;101746.41;5103839;28;20486;-73
2022/04/29 00:15:36;;;;;;;11.10;6.47;;;;;;;7.96;71.30;101748.81;5104229;28;20469;-74
2022/04/29 00:18:03;;;;;;;8.83;5.80;;;;;;;7.89;71.67;101755.44;5103997;28;20884;-74
2022/04/29 00:20:30;;;;;;;10.07;6.47;;;;;;;7.85;71.75;101749.44;5087096;28;20475;-74
2022/04/29 00:22:56;;;;;;;14.90;7.07;;;;;;;7.84;71.70;101745.03;5104732;28;20431;-73
2022/04/29 00:25:23;;;;;;;14.67;6.80;;;;;;;7.89;71.81;101747.44;5104423;27;21122;-74
2022/04/29 00:27:50;;;;;;;14.33;7.07;;;;;;;7.85;71.85;101749.44;5104656;28;20453;-71
2022/04/29 00:30:18;;;;;;;12.13;6.77;;;;;;;7.86;71.93;101740.50;5103145;28;20485;-71
2022/04/29 00:32:45;;;;;;;12.33;6.43;;;;;;;7.78;72.13;101740.06;5104361;28;20439;-71
2022/04/29 00:35:12;;;;;;;11.47;7.30;;;;;;;7.70;72.53;101742.28;5103301;28;20455;-71
2022/04/29 00:37:44;;;;;;;12.67;7.30;;;;;;;7.79;72.64;101754.22;5104230;28;20490;-71
2022/04/29 00:40:16;;;;;;;11.80;7.47;;;;;;;7.71;72.67;101744.03;5102971;28;20443;-72
2022/04/29 00:42:45;;;;;;;12.63;7.10;;;;;;;7.65;73.00;101737.22;5104564;28;20485;-71
2022/04/29 00:45:12;;;;;;;11.50;7.80;;;;;;;7.69;73.12;101740.56;5102806;28;20472;-72
2022/04/29 00:47:40;;;;;;;11.73;7.63;;;;;;;7.61;73.17;101741.00;5104012;28;20447;-72
2022/04/29 00:50:08;;;;;;;13.73;7.27;;;;;;;7.63;73.39;101733.78;5103855;28;20519;-73
2022/04/29 00:52:37;;;;;;;13.77;7.33;;;;;;;7.61;73.64;101729.50;5104327;28;20436;-72
2022/04/29 00:55:07;;;;;;;14.50;7.63;;;;;;;7.51;73.89;101724.66;5103718;28;20920;-71
2022/04/29 00:57:40;;;;;;;12.50;7.80;;;;;;;7.38;74.24;101730.75;5103318;28;20483;-72
2022/04/29 01:00:09;;;;;;;15.73;8.33;;;;;;;7.47;74.16;101723.13;5102427;27;20447;-72
2022/04/29 01:02:41;;;;;;;10.33;7.57;;;;;;;7.46;74.38;101717.88;5088972;28;20838;-72
2022/04/29 01:05:09;;;;;;;11.40;7.13;;;;;;;7.41;74.66;101728.78;5094877;28;20439;-71
2022/04/29 01:07:37;;;;;;;12.10;8.60;;;;;;;7.40;74.69;101729.75;5103460;28;20471;-71
2022/04/29 01:10:04;;;;;;;20.13;8.33;;;;;;;7.37;74.88;101711.28;5103727;28;20443;-72
2022/04/29 01:12:33;;;;;;;16.70;9.77;;;;;;;7.40;74.62;101726.22;5103042;28;20514;-72
2022/04/29 01:15:03;;;;;;;15.43;8.60;;;;;;;7.15;75.23;101703.59;5102256;28;20451;-72
2022/04/29 01:17:30;;;;;;;18.30;9.47;;;;;;;7.09;75.98;101709.25;5085253;28;20485;-72
2022/04/29 01:20:01;;;;;;;18.13;8.70;;;;;;;7.19;75.77;101712.25;5103104;28;20527;-72
2022/04/29 01:22:29;;;;;;;16.50;8.70;;;;;;;7.22;75.50;101704.13;5103108;28;20479;-72
2022/04/29 01:24:56;;;;;;;16.60;8.43;;;;;;;7.24;75.51;101715.53;5103580;28;20457;-72
2022/04/29 01:27:23;;;;;;;16.90;9.60;;;;;;;7.26;75.45;101711.00;5102077;28;20500;-71
2022/04/29 01:29:55;;;;;;;11.57;8.80;;;;;;;7.24;75.47;101716.41;5102665;28;20455;-72
2022/04/29 01:32:23;;;;;;;17.13;9.23;;;;;;;7.19;75.63;101713.13;5103104;28;20478;-72
2022/04/29 01:34:49;;;;;;;16.63;9.30;;;;;;;7.12;75.84;101712.59;5103346;28;20484;-71
2022/04/29 01:37:16;;;;;;;16.50;9.03;;;;;;;7.13;75.90;101709.03;5102515;28;20579;-73
2022/04/29 01:39:46;;;;;;;14.83;8.70;;;;;;;7.11;76.13;101715.34;5103233;28;20439;-72
2022/04/29 01:42:13;;;;;;;16.23;10.90;;;;;;;7.07;76.29;101713.81;5102488;28;21409;-72
2022/04/29 01:44:39;;;;;;;18.37;9.03;;;;;;;7.12;76.00;101712.59;5101738;28;20476;-72
2022/04/29 01:47:06;;;;;;;17.93;9.40;;;;;;;7.08;76.42;101716.38;5101735;28;20482;-70
2022/04/29 01:49:33;;;;;;;18.40;9.80;;;;;;;7.08;76.44;101715.50;5102988;28;20431;-71
2022/04/29 01:52:00;;;;;;;20.97;10.80;;;;;;;6.96;76.73;101707.25;5101508;27;20489;-72
2022/04/29 01:54:27;;;;;;;15.27;9.77;;;;;;;6.95;76.84;101705.53;5102829;28;21109;-72
2022/04/29 01:56:55;;;;;;;12.83;8.80;;;;;;;6.92;76.79;101704.81;5102120;28;21267;-70
2022/04/29 01:59:21;;;;;;;18.90;9.73;;;;;;;6.91;77.07;101695.13;5101387;28;20478;-70
2022/04/29 02:01:48;;;;;;;20.83;10.40;;;;;;;6.87;77.26;101697.09;5102362;28;20501;-70
2022/04/29 02:04:15;;;;;;;13.97;10.17;;;;;;;6.81;77.67;101697.44;5102869;28;20443;-73
2022/04/29 02:06:42;;;;;;;14.53;9.33;;;;;;;6.78;77.51;101698.44;5102079;28;20474;-72
2022/04/29 02:09:10;;;;;;;18.60;9.47;;;;;;;6.75;77.45;101695.97;5102589;28;20439;-72
2022/04/29 02:11:37;;;;;;;17.83;9.63;;;;;;;6.74;77.86;101696.03;5102302;28;20490;-72
2022/04/29 02:14:05;;;;;;;18.97;11.33;;;;;;;6.73;77.82;101696.97;5101871;28;20432;-71
2022/04/29 02:16:32;;;;;;;18.73;10.70;;;;;;;6.74;77.75;101688.91;5101787;28;20835;-73
2022/04/29 02:18:59;;;;;;;20.50;10.40;;;;;;;6.64;78.14;101679.69;5101882;28;20500;-73
2022/04/29 02:21:25;;;;;;;20.37;10.90;;;;;;;6.62;78.23;101675.41;5101711;27;20499;-72
2022/04/29 02:23:52;;;;;;;16.53;10.87;;;;;;;6.62;78.13;101667.44;5102733;28;20435;-72
2022/04/29 02:26:19;;;;;;;20.87;10.13;;;;;;;6.58;78.08;101669.41;5101757;28;20478;-72
2022/04/29 02:28:45;;;;;;;18.77;11.60;;;;;;;6.57;78.14;101668.53;5102438;28;20486;-73
2022/04/29 02:31:13;;;;;;;23.03;10.10;;;;;;;6.52;78.56;101678.53;5101161;28;21043;-72
2022/04/29 02:33:40;;;;;;;18.50;9.67;;;;;;;6.52;78.54;101673.22;5102159;28;20485;-73
2022/04/29 02:36:09;;;;;;;21.00;11.70;;;;;;;6.52;78.54;101670.56;5101121;28;20482;-73
2022/04/29 02:38:36;;;;;;;20.83;11.90;;;;;;;6.52;78.68;101667.91;5101509;28;20542;-73
2022/04/29 02:41:02;;;;;;;17.40;10.20;;;;;;;6.47;79.09;101671.75;5101846;28;20455;-73
2022/04/29 02:43:29;;;;;;;16.30;9.80;;;;;;;6.46;79.26;101676.19;5101293;28;20454;-73
2022/04/29 02:45:56;;;;;;;18.57;11.50;;;;;;;6.52;79.02;101665.25;5100690;27;20479;-73
2022/04/29 02:48:24;;;;;;;20.40;11.47;;;;;;;6.47;79.23;101669.09;5101395;28;20459;-72
2022/04/29 02:50:51;;;;;;;19.27;11.20;;;;;;;6.48;79.07;101657.53;5101045;28;20475;-71
2022/04/29 02:53:17;;;;;;;20.40;11.30;;;;;;;6.47;79.15;101651.34;5101890;28;20798;-70
2022/04/29 02:55:44;;;;;;;21.23;11.37;;;;;;;6.44;79.44;101656.84;5101035;28;20470;-70
2022/04/29 02:58:11;;;;;;;19.80;11.27;;;;;;;6.40;79.37;101653.44;5101215;28;21164;-71
2022/04/29 03:00:39;;;;;;;19.87;10.97;;;;;;;6.39;79.49;101637.63;5100046;28;20467;-72
2022/04/29 03:03:06;;;;;;;22.57;11.80;;;;;;;6.33;79.62;101644.09;5101619;28;20817;-72
2022/04/29 03:05:34;;;;;;;22.37;11.60;;;;;;;6.29;79.57;101649.66;5101043;28;20466;-72
2022/04/29 03:08:01;;;;;;;16.57;10.40;;;;;;;6.22;79.95;101646.44;5101436;28;20447;-71
2022/04/29 03:10:28;;;;;;;19.70;10.80;;;;;;;6.21;79.98;101642.94;5101056;28;20488;-71
2022/04/29 03:12:54;;;;;;;20.30;11.30;;;;;;;6.18;80.20;101635.13;5100941;28;20495;-71
2022/04/29 03:15:25;;;;;;;18.00;11.53;;;;;;;6.20;80.12;101640.34;5100545;27;20460;-72
2022/04/29 03:20:40;;;;;;;24.40;11.60;;;;;;;6.11;80.07;101633.72;5100614;28;20497;-71
2022/04/29 03:23:07;;;;;;;28.10;11.73;;;;;;;6.08;80.05;101638.31;5101869;28;20496;-70
2022/04/29 03:25:34;;;;;;;20.83;11.57;;;;;;;6.06;80.12;101634.84;5101140;28;20497;-70
2022/04/29 03:28:01;;;;;;;22.20;11.23;;;;;;;6.01;80.05;101635.13;5101126;28;20473;-70
2022/04/29 03:30:27;;;;;;;18.50;11.83;;;;;;;5.99;80.14;101640.50;5100103;27;20467;-71
2022/04/29 03:32:55;;;;;;;18.07;11.43;;;;;;;6.00;80.19;101631.56;5101088;28;20443;-71
2022/04/29 03:35:22;;;;;;;24.00;12.10;;;;;;;5.98;80.09;101625.50;5100728;28;20455;-70
2022/04/29 03:37:52;;;;;;;19.10;12.57;;;;;;;5.96;79.96;101629.19;5101029;28;20453;-70
2022/04/29 03:40:20;;;;;;;25.10;12.10;;;;;;;5.92;80.32;101628.44;5100653;28;20447;-70
2022/04/29 03:42:47;;;;;;;14.70;10.37;;;;;;;5.91;80.12;101628.50;5100067;28;20450;-70
2022/04/29 03:45:14;;;;;;;18.80;11.10;;;;;;;5.90;80.11;101632.94;5099948;28;20550;-70
2022/04/29 03:47:41;;;;;;;17.13;11.50;;;;;;;5.89;80.25;101628.59;5101076;28;20518;-70
2022/04/29 03:50:08;;;;;;;17.83;10.87;;;;;;;5.89;80.66;101630.38;5100364;28;20435;-71
2022/04/29 03:52:35;;;;;;;18.60;12.73;;;;;;;5.90;80.47;101638.25;5101484;28;20443;-71
2022/04/29 03:55:04;;;;;;;22.37;11.83;;;;;;;5.91;80.44;101636.47;5100842;28;20443;-71
2022/04/29 03:57:30;;;;;;;19.47;12.80;;;;;;;5.87;80.57;101633.13;5100575;28;20502;-72
2022/04/29 03:59:57;;;;;;;20.87;11.37;;;;;;;5.86;80.80;101626.06;5100450;28;20490;-73
2022/04/29 04:02:24;;;;;;;20.10;11.97;;;;;;;5.89;80.88;101636.56;5100146;28;20479;-73
2022/04/29 04:04:50;;;;;;;15.87;11.30;;;;;;;5.84;81.32;101635.91;5101272;28;20450;-73
2022/04/29 04:07:17;;;;;;;20.03;10.60;;;;;;;5.91;81.59;101633.81;5100541;28;20489;-72
2022/04/29 04:09:44;;;;;;;22.80;12.33;;;;;;;5.99;81.57;101635.19;5100997;28;20473;-72
2022/04/29 04:12:12;;;;;;;23.90;12.33;;;;;;;6.06;81.45;101632.22;5099378;28;20501;-72
2022/04/29 04:14:39;;;;;;;23.47;12.90;;;;;;;6.08;81.24;101630.34;5099703;28;20451;-71
2022/04/29 04:17:07;;;;;;;25.80;12.20;;;;;;;6.20;81.12;101633.25;5104053;28;20509;-70
2022/04/29 04:19:34;;;;;;;20.77;11.83;;;;;;;6.33;80.48;101638.75;5103129;28;20574;-71
2022/04/29 04:22:00;;;;;;;21.30;12.57;;;;;;;6.44;80.00;101632.03;5103260;28;20470;-70
2022/04/29 04:24:27;;;;;;;18.97;12.57;;;;;;;6.53;79.49;101634.25;5104486;28;20443;-70
2022/04/29 04:26:54;;;;;;;21.67;12.00;;;;;;;6.64;79.06;101633.66;5110036;28;20485;-71
2022/04/29 04:29:22;;;;;;;20.20;11.23;;;;;;;6.81;78.52;101628.31;5106270;28;20447;-72
2022/04/29 04:31:49;;;;;;;21.13;11.87;;;;;;;6.92;78.05;101631.22;5103443;27;21263;-71
2022/04/29 04:37:00;;;;;;;26.07;12.50;;;;;;;7.21;76.88;101635.94;5110293;27;20481;-70
2022/04/29 04:39:27;;;;;;;22.73;12.10;;;;;;;7.29;76.33;101641.66;5112418;28;21066;-69
2022/04/29 04:41:53;;;;;;;25.87;11.63;;;;;;;7.35;76.06;101642.19;5109231;28;20479;-70
2022/04/29 04:44:22;;;;;;;28.30;12.97;;;;;;;7.46;75.82;101641.56;5102611;28;20900;-70
2022/04/29 04:46:48;;;;;;;23.40;11.63;;;;;;;7.44;75.58;101630.16;5108347;28;21125;-70
2022/04/29 04:49:15;;;;;;;19.00;11.30;;;;;;;7.56;75.13;101636.59;5104045;28;20447;-71
2022/04/29 04:51:42;;;;;;;20.13;11.67;;;;;;;7.80;74.78;101634.34;5101742;28;20510;-70
2022/04/29 04:54:09;;;;;;;18.93;11.63;;;;;;;7.85;73.93;101637.59;5103884;28;20466;-70
2022/04/29 04:56:35;;;;;;;20.27;11.80;;;;;;;8.14;73.24;101648.34;5103256;27;20901;-70
2022/04/29 04:59:02;;;;;;;22.93;12.40;;;;;;;8.42;72.08;101641.34;5103033;28;20517;-69
2022/04/29 05:01:30;;;;;;;22.13;12.43;;;;;;;8.91;70.45;101641.06;5102756;28;20475;-70
2022/04/29 05:03:57;;;;;;;22.77;11.43;;;;;;;9.71;67.76;101641.31;5103223;28;20524;-70
2022/04/29 05:06:24;;;;;;;19.80;10.90;;;;;;;9.87;66.35;101641.13;5103125;28;20471;-70
2022/04/29 05:08:50;;;;;;;16.50;11.40;;;;;;;9.76;65.71;101646.34;5103372;28;20447;-70
2022/04/29 05:11:17;;;;;;;18.73;10.77;;;;;;;9.64;66.07;101648.00;5103201;27;20479;-70
2022/04/29 05:13:44;;;;;;;17.50;12.97;;;;;;;9.46;67.41;101644.72;5098358;28;20479;-67
2022/04/29 05:16:10;;;;;;;23.77;11.63;;;;;;;9.27;67.99;101646.84;5088022;28;21058;-68
2022/04/29 05:18:38;;;;;;;18.37;10.83;;;;;;;9.75;66.76;101644.63;5097760;28;20483;-70
2022/04/29 05:21:05;;;;;;;22.43;12.63;;;;;;;9.75;66.76;101647.28;5100989;27;20478;-71
2022/04/29 05:23:34;;;;;;;15.90;10.80;;;;;;;9.86;65.26;101638.56;5102290;28;20435;-71
2022/04/29 05:26:01;;;;;;;18.40;10.13;;;;;;;10.02;65.74;101646.44;5100724;27;20919;-70
2022/04/29 05:28:27;;;;;;;19.40;10.40;;;;;;;9.98;63.88;101637.75;5101002;28;20451;-70
2022/04/29 05:30:54;;;;;;;15.63;9.70;;;;;;;9.29;66.99;101634.25;5100685;28;20471;-70
2022/04/29 05:33:21;;;;;;;16.03;12.27;;;;;;;9.60;66.71;101638.50;5100496;28;20447;-70
2022/04/29 05:35:49;;;;;;;16.63;11.27;;;;;;;9.29;67.77;101629.78;5100883;27;20503;-70
2022/04/29 05:38:16;;;;;;;21.60;11.00;;;;;;;9.18;68.42;101626.94;5101189;28;20446;-72
2022/04/29 05:43:30;;;;;;;17.90;10.07;;;;;;;9.01;70.15;101628.88;5100975;28;20457;-69
2022/04/29 05:45:57;;;;;;;18.23;10.50;;;;;;;9.49;68.73;101619.63;5100524;27;20459;-69
2022/04/29 05:48:24;;;;;;;16.40;11.20;;;;;;;9.01;69.27;101623.53;5101279;28;20504;-69
2022/04/29 05:50:52;;;;;;;18.83;11.37;;;;;;;8.73;70.38;101620.88;5101088;27;20490;-69
2022/04/29 05:53:18;;;;;;;20.50;12.00;;;;;;;9.15;70.14;101627.13;5101653;28;20427;-69
2022/04/29 05:55:45;;;;;;;17.03;11.83;;;;;;;10.29;66.78;101625.84;5100936;27;20466;-69
2022/04/29 05:58:12;;;;;;;19.63;11.67;;;;;;;10.76;64.44;101628.88;5101019;28;20443;-69
2022/04/29 06:00:38;;;;;;;17.73;11.20;;;;;;;9.99;66.13;101620.78;5100702;27;20997;-70
2022/04/29 06:03:05;;;;;;;24.97;11.80;;;;;;;10.14;65.93;101627.75;5101953;28;20488;-70
2022/04/29 06:05:32;;;;;;;17.43;11.33;;;;;;;10.11;65.90;101622.63;5100500;28;20519;-71
2022/04/29 06:08:00;;;;;;;25.33;11.40;;;;;;;10.09;66.25;101637.91;5101524;28;20886;-70
2022/04/29 06:10:27;;;;;;;18.10;11.17;;;;;;;10.11;65.94;101635.13;5100824;27;20474;-70
2022/04/29 06:12:54;;;;;;;21.20;11.13;;;;;;;9.34;68.10;101621.47;5100806;28;20498;-70
2022/04/29 06:15:20;;;;;;;17.40;11.20;;;;;;;8.72;71.38;101632.50;5100606;27;20447;-70
2022/04/29 06:17:47;;;;;;;21.30;11.53;;;;;;;9.38;70.78;101631.00;5101457;28;20843;-70
2022/04/29 06:20:14;;;;;;;20.57;12.23;;;;;;;9.27;69.59;101629.03;5100798;27;20539;-70
2022/04/29 06:22:44;;;;;;;18.40;11.50;;;;;;;9.00;71.21;101626.31;5102421;28;20458;-69
2022/04/29 06:25:12;;;;;;;18.80;11.10;;;;;;;9.58;69.53;101632.38;5101674;27;20958;-69
2022/04/29 06:27:41;;;;;;;23.37;11.47;;;;;;;11.07;63.98;101619.53;5102469;28;20431;-69
2022/04/29 06:30:09;;;;;;;18.23;10.80;;;;;;;11.74;61.79;101623.59;5100772;27;20549;-70
2022/04/29 06:32:36;;;;;;;20.80;12.00;;;;;;;12.81;58.33;101619.91;5102149;28;20443;-70
2022/04/29 06:35:04;;;;;;;14.23;11.60;;;;;;;13.97;54.14;101625.78;5102323;28;20467;-70
2022/04/29 06:37:30;;;;;;;21.83;10.80;;;;;;;13.12;54.80;101622.81;5101219;28;20526;-70
2022/04/29 06:39:57;;;;;;;18.43;10.23;;;;;;;14.08;52.88;101623.06;5101506;28;20509;-70
2022/04/29 06:42:25;;;;;;;14.70;11.10;;;;;;;12.14;58.62;101628.66;5101638;28;20827;-70
2022/04/29 06:44:52;;;;;;;18.80;10.27;;;;;;;11.77;58.92;101620.72;5099617;28;20511;-71
2022/04/29 06:47:19;;;;;;;21.10;10.60;;;;;;;14.97;51.64;101625.31;5098797;28;21096;-70
2022/04/29 06:49:46;;;;;;;14.27;10.70;;;;;;;13.82;53.07;101626.09;5100738;28;20447;-70
2022/04/29 06:52:12;;;;;;;16.20;9.20;;;;;;;15.00;50.12;101628.59;5100555;28;20489;-71
2022/04/29 06:54:40;;;;;;;14.50;9.77;;;;;;;16.44;45.96;101629.91;5100475;28;20438;-70
2022/04/29 06:57:09;;;;;;;16.17;10.17;;;;;;;14.82;48.61;101631.03;5100790;28;20505;-70
2022/04/29 06:59:37;;;;;;;13.33;10.00;;;;;;;16.20;47.48;101627.66;5100599;28;20483;-71
2022/04/29 07:02:04;;;;;;;16.13;9.83;;;;;;;17.45;43.94;101626.53;5099101;27;20514;-70
2022/04/29 07:04:32;;;;;;;12.60;10.27;;;;;;;16.81;44.23;101623.66;5101596;28;20431;-70
2022/04/29 07:06:59;;;;;;;13.77;8.53;;;;;;;18.20;42.43;101628.97;5100842;28;20489;-71
2022/04/29 07:09:26;;;;;;;17.40;10.13;;;;;;;16.10;45.58;101610.63;5100762;28;20474;-70
2022/04/29 07:11:54;;;;;;;15.40;9.60;;;;;;;17.17;44.64;101609.47;5100435;28;20494;-71
2022/04/29 07:14:22;;;;;;;12.83;10.27;;;;;;;18.37;41.86;101619.13;5099978;28;21134;-70
2022/04/29 07:16:50;;;;;;;12.10;9.83;;;;;;;18.49;40.72;101617.84;5099904;28;20470;-70
2022/04/29 07:19:17;;;;;;;10.83;9.60;;;;;;;17.78;42.18;101614.19;5101010;28;20509;-70
2022/04/29 07:21:43;;;;;;;18.37;10.43;;;;;;;19.26;39.58;101617.06;5100255;28;20475;-70
2022/04/29 07:24:12;;;;;;;16.37;10.57;;;;;;;18.03;41.65;101617.97;5100630;28;20431;-70
2022/04/29 07:26:39;;;;;;;18.73;10.00;;;;;;;16.27;45.41;101614.44;5100267;28;20478;-70
2022/04/29 07:29:06;;;;;;;12.07;9.70;;;;;;;16.90;44.32;101612.00;5100535;28;20473;-71
2022/04/29 07:31:33;;;;;;;19.50;10.47;;;;;;;17.18;43.69;101606.59;5098368;27;20474;-71
2022/04/29 07:34:01;;;;;;;11.63;9.70;;;;;;;17.23;44.20;101612.41;5101542;28;20435;-71
2022/04/29 07:41:56;;;;;;;11.80;9.47;;;;;;;18.29;40.05;101629.88;5100154;27;20545;-70
2022/04/29 07:44:23;;;;;;;12.70;9.57;;;;;;;15.70;46.12;101628.63;5099214;28;20439;-70
2022/04/29 07:46:50;;;;;;;13.60;9.70;;;;;;;18.06;41.84;101614.97;5099813;27;20494;-71
2022/04/29 07:49:18;;;;;;;12.33;9.97;;;;;;;15.28;48.87;101609.97;5101350;28;20438;-70
2022/04/29 07:51:45;;;;;;;15.97;10.57;;;;;;;16.66;45.53;101601.69;5104301;27;20474;-70
2022/04/29 07:54:12;;;;;;;15.20;9.80;;;;;;;17.41;43.99;101598.94;5104640;28;20426;-70
2022/04/29 07:56:39;;;;;;;16.30;9.57;;;;;;;17.01;44.35;101592.06;5103920;27;20475;-70
2022/04/29 07:59:06;;;;;;;16.80;9.77;;;;;;;17.33;43.90;101600.72;5104890;28;20470;-70
2022/04/29 08:01:33;;;;;;;13.97;9.07;;;;;;;17.47;42.83;101597.47;5102631;27;20474;-71
2022/04/29 08:04:00;;;;;;;14.73;9.50;;;;;;;17.61;43.64;101588.81;5105172;28;20454;-70
2022/04/29 08:06:28;;;;;;;19.00;10.53;;;;;;;17.50;44.14;101595.31;5103853;27;20479;-70
2022/04/29 08:08:55;;;;;;;11.37;9.50;;;;;;;17.68;43.64;101598.03;5104014;28;20484;-70
2022/04/29 08:11:22;;;;;;;16.83;9.47;;;;;;;16.90;44.08;101603.06;5104314;27;20470;-70
2022/04/29 08:13:49;;;;;;;16.03;9.60;;;;;;;16.18;46.55;101608.06;5104938;28;20439;-70
2022/04/29 08:16:16;;;;;;;15.87;10.00;;;;;;;17.01;44.32;101612.81;5102819;27;20466;-70
2022/04/29 08:18:43;;;;;;;18.47;10.40;;;;;;;14.69;48.62;101604.34;5104298;28;20471;-70
2022/04/29 08:21:10;;;;;;;14.77;10.67;;;;;;;15.47;48.52;101606.47;5104186;27;21153;-69
2022/04/29 08:23:38;;;;;;;17.30;10.30;;;;;;;16.52;47.06;101602.16;5104222;28;20424;-70
2022/04/29 08:26:04;;;;;;;14.43;9.83;;;;;;;16.55;45.74;101597.31;5103994;27;20490;-70
2022/04/29 08:28:31;;;;;;;13.57;10.30;;;;;;;15.96;48.09;101601.13;5104175;28;20443;-70
2022/04/29 08:30:58;;;;;;;16.03;9.90;;;;;;;17.28;45.24;101593.88;5101783;27;20469;-70
2022/04/29 08:33:26;;;;;;;13.57;10.17;;;;;;;16.67;46.42;101592.59;5104558;28;20518;-70
2022/04/29 08:35:52;;;;;;;18.57;9.73;;;;;;;17.17;44.11;101595.94;5103924;27;20663;-70
2022/04/29 08:38:19;;;;;;;12.33;9.33;;;;;;;17.46;44.24;101591.22;5103311;28;20439;-69
2022/04/29 08:40:48;;;;;;;14.47;10.30;;;;;;;17.68;44.15;101597.19;5103378;27;20474;-70
2022/04/29 08:43:17;;;;;;;11.10;9.10;;;;;;;16.36;46.86;101595.50;5103529;28;20865;-70
2022/04/29 08:45:44;;;;;;;14.40;9.50;;;;;;;16.15;46.44;101584.91;5101916;27;20505;-70
2022/04/29 08:48:11;;;;;;;13.03;9.13;;;;;;;16.33;46.72;101590.41;5103300;28;20455;-70
2022/04/29 08:50:38;;;;;;;13.00;9.50;;;;;;;16.40;46.43;101579.88;5103435;27;20534;-70
2022/04/29 08:53:04;;;;;;;12.87;9.73;;;;;;;16.40;46.69;101579.88;5103347;28;20423;-70
2022/04/29 09:01:05;;;;;;;18.50;10.90;;;;;;;15.88;48.65;101579.41;5101099;27;20486;-70
2022/04/29 09:03:32;;;;;;;21.30;11.63;;;;;;;14.72;50.89;101586.22;5103969;28;20423;-70
2022/04/29 09:05:58;;;;;;;23.23;11.70;;;;;;;14.31;52.24;101584.28;5102991;27;20475;-70
2022/04/29 09:08:27;;;;;;;14.47;12.50;;;;;;;14.87;51.34;101574.09;5102833;28;20447;-70
2022/04/29 09:10:56;;;;;;;18.37;12.00;;;;;;;15.93;49.88;101585.22;5103013;27;20518;-70
2022/04/29 09:13:25;;;;;;;19.77;12.00;;;;;;;16.19;48.84;101578.22;5103344;28;21019;-70
2022/04/29 09:15:54;;;;;;;20.13;12.67;;;;;;;13.97;53.63;101586.31;5101481;28;21261;-70
2022/04/29 09:18:35;;;;;;;16.13;11.30;;;;;;;15.31;51.46;101579.19;5102565;28;20455;-70
2022/04/29 09:21:07;;;;;;;17.67;12.40;;;;;;;14.73;51.97;101586.09;5102043;28;20485;-71
2022/04/29 09:23:35;;;;;;;15.10;12.03;;;;;;;14.64;51.83;101590.44;5102556;28;20431;-70
2022/04/29 09:26:05;;;;;;;19.00;13.03;;;;;;;13.62;55.86;101589.28;5102663;28;20520;-70
2022/04/29 09:28:34;;;;;;;22.03;13.13;;;;;;;16.04;49.00;101581.50;5102666;28;20446;-70
2022/04/29 09:31:01;;;;;;;15.30;11.30;;;;;;;16.35;46.55;101574.94;5101332;28;20471;-70
2022/04/29 09:33:29;;;;;;;17.50;12.00;;;;;;;17.48;44.73;101580.25;5102926;28;20874;-71
2022/04/29 09:35:56;;;;;;;15.03;11.67;;;;;;;18.41;43.32;101574.44;5102441;28;20555;-70
2022/04/29 09:41:08;;;;;;;16.30;11.53;;;;;;;19.44;38.93;101568.97;5102266;28;20931;-70
2022/04/29 09:43:37;;;;;;;14.43;10.90;;;;;;;18.53;40.34;101565.03;5102280;28;20535;-70
2022/04/29 09:46:11;;;;;;;15.73;11.53;;;;;;;17.47;41.74;101568.59;5100279;28;21302;-70
2022/04/29 09:48:59;;;;;;;15.57;11.93;;;;;;;17.71;43.31;101564.41;5102675;28;20514;-70
2022/04/29 09:51:43;;;;;;;17.60;12.00;;;;;;;19.82;40.73;101565.81;5102162;28;20475;-70
2022/04/29 09:54:13;;;;;;;17.90;11.63;;;;;;;20.57;37.79;101562.84;5102263;28;20423;-71
2022/04/29 09:56:40;;;;;;;15.70;11.73;;;;;;;20.67;36.94;101566.22;5102187;28;20549;-70
2022/04/29 09:59:09;;;;;;;18.00;12.10;;;;;;;17.12;43.31;101574.81;5102987;28;20600;-69
2022/04/29 10:01:36;;;;;;;15.73;12.90;;;;;;;16.75;44.55;101576.50;5101120;28;20482;-70
2022/04/29 10:04:03;;;;;;;16.53;11.93;;;;;;;17.40;44.27;101567.50;5102157;28;20962;-69
2022/04/29 10:06:34;;;;;;;18.43;12.60;;;;;;;16.15;46.25;101567.88;5102171;28;20493;-70
2022/04/29 10:09:01;;;;;;;18.33;11.90;;;;;;;15.52;48.15;101573.69;5100861;28;20450;-70
2022/04/29 10:11:29;;;;;;;16.47;13.00;;;;;;;14.18;52.02;101559.41;5101014;28;20471;-69
2022/04/29 10:13:57;;;;;;;19.03;12.73;;;;;;;15.66;48.85;101558.94;5097518;28;20434;-70
2022/04/29 10:16:27;;;;;;;16.07;12.20;;;;;;;14.95;50.32;101555.44;5049141;28;20477;-71
2022/04/29 10:21:45;;;;;;;18.33;11.93;;;;;;;15.92;47.88;101565.50;5040573;28;20620;-70
2022/04/29 10:24:12;;;;;;;14.10;11.67;;;;;;;15.70;48.50;101565.75;5041956;28;20434;-70
2022/04/29 10:26:39;;;;;;;22.60;12.40;;;;;;;14.39;51.35;101569.31;5053589;28;20480;-70
2022/04/29 10:29:06;;;;;;;15.57;12.17;;;;;;;14.14;51.63;101563.38;5060307;28;20472;-70
2022/04/29 10:31:34;;;;;;;15.93;12.50;;;;;;;14.02;52.73;101553.66;5072411;28;21155;-70
2022/04/29 10:34:29;;;;;;;16.97;12.23;;;;;;;14.51;51.72;101549.41;5081476;28;20455;-69
2022/04/29 10:36:55;;;;;;;16.03;11.83;;;;;;;15.04;50.18;101559.97;5080195;28;20548;-70
2022/04/29 10:39:22;;;;;;;16.27;12.83;;;;;;;14.27;52.47;101565.88;5081244;28;20505;-71
2022/04/29 10:41:59;;;;;;;17.00;11.83;;;;;;;14.19;52.92;101558.44;5080903;28;20541;-71
2022/04/29 10:44:26;;;;;;;18.03;13.03;;;;;;;13.68;54.01;101554.69;5084871;28;20522;-70
2022/04/29 10:46:54;;;;;;;20.80;11.70;;;;;;;13.69;54.62;101567.13;5100626;28;20459;-71
2022/04/29 10:49:23;;;;;;;17.30;11.07;;;;;;;14.11;54.07;101548.34;5101333;28;20473;-70
2022/04/29 10:51:51;;;;;;;19.70;11.30;;;;;;;13.80;53.00;101558.19;5100659;28;20473;-70
2022/04/29 10:54:45;;;;;;;18.53;12.40;;;;;;;14.82;52.44;101550.25;5101821;28;20431;-70
2022/04/29 10:57:14;;;;;;;17.40;12.47;;;;;;;14.67;51.83;101546.28;5100220;28;20872;-70
2022/04/29 10:59:51;;;;;;;14.77;11.10;;;;;;;15.61;51.25;101548.59;5099944;28;20440;-70
2022/04/29 11:02:28;;;;;;;13.50;10.50;;;;;;;14.00;53.66;101552.94;5101065;28;20490;-70
2022/04/29 11:04:55;;;;;;;15.27;11.23;;;;;;;13.89;54.64;101543.97;5101035;28;20446;-70
2022/04/29 11:07:41;;;;;;;18.60;11.93;;;;;;;14.21;53.56;101545.72;5099237;28;20475;-70
2022/04/29 11:10:10;;;;;;;17.57;12.07;;;;;;;15.13;51.68;101538.59;5100430;28;20450;-70
2022/04/29 11:12:38;;;;;;;18.33;12.50;;;;;;;15.17;51.53;101531.94;5101317;28;20509;-70
2022/04/29 11:15:16;;;;;;;18.33;12.27;;;;;;;14.53;53.46;101527.75;5100116;28;20463;-70
2022/04/29 11:17:45;;;;;;;15.80;14.07;;;;;;;14.41;54.70;101530.53;5101304;28;20457;-69
2022/04/29 11:20:22;;;;;;;14.83;12.33;;;;;;;14.59;52.89;101530.78;5100032;28;20548;-69
2022/04/29 11:25:51;;;;;;;21.10;14.33;;;;;;;14.83;52.28;101529.59;5098854;28;20553;-69
2022/04/29 11:28:19;;;;;;;15.07;12.40;;;;;;;14.36;53.39;101540.00;5099603;28;20423;-69
2022/04/29 11:30:46;;;;;;;15.90;11.07;;;;;;;15.07;52.11;101532.78;5098731;28;20971;-70
2022/04/29 11:33:15;;;;;;;14.17;11.23;;;;;;;15.67;50.53;101534.53;5100527;28;20423;-70
2022/04/29 11:35:43;;;;;;;16.27;11.10;;;;;;;15.70;50.65;101534.25;5099239;28;20475;-72
2022/04/29 11:38:10;;;;;;;16.83;11.60;;;;;;;14.87;51.88;101533.72;5100412;28;21193;-72
2022/04/29 11:40:40;;;;;;;22.00;12.00;;;;;;;15.33;51.10;101532.25;5100234;28;20466;-76
2022/04/29 11:43:10;;;;;;;15.80;10.80;;;;;;;15.77;49.33;101527.31;5099055;28;20466;-72
2022/04/29 11:45:38;;;;;;;14.27;11.60;;;;;;;15.20;50.85;101526.28;5099166;28;20551;-78
2022/04/29 11:48:05;;;;;;;15.50;11.13;;;;;;;14.87;52.18;101526.47;5100408;28;20428;-70